sensor_id;sensor_type;location;lat;lon;timestamp;temperature;humidity
55016;DHT22;40919;43.236;21.590;2022-09-21T00:01:12;281.70;2278.40
55016;DHT22;40919;43.236;21.590;2022-09-21T00:03:39;281.80;2278.40
55016;DHT22;40919;43.236;21.590;2022-09-21T00:06:18;281.70;2278.40
55016;DHT22;40919;43.236;21.590;2022-09-21T00:08:45;281.80;2278.40
55016;DHT22;40919;43.236;21.590;2022-09-21T00:11:13;256.80;2252.80
55016;DHT22;40919;43.236;21.590;2022-09-21T00:13:39;281.70;2278.40
55016;DHT22;40919;43.236;21.590;2022-09-21T00:16:07;281.70;2278.40
55016;DHT22;40919;43.236;21.590;2022-09-21T00:18:33;256.90;2252.80
55016;DHT22;40919;43.236;21.590;2022-09-21T00:21:00;281.60;2278.40
55016;DHT22;40919;43.236;21.590;2022-09-21T00:23:27;281.70;2278.40
55016;DHT22;40919;43.236;21.590;2022-09-21T00:26:04;281.80;2278.40
55016;DHT22;40919;43.236;21.590;2022-09-21T00:28:30;281.80;2278.40
55016;DHT22;40919;43.236;21.590;2022-09-21T00:31:00;281.80;2278.40
55016;DHT22;40919;43.236;21.590;2022-09-21T00:33:26;281.80;2278.40
55016;DHT22;40919;43.236;21.590;2022-09-21T00:35:52;281.80;2278.40
55016;DHT22;40919;43.236;21.590;2022-09-21T00:38:18;281.80;2278.40
55016;DHT22;40919;43.236;21.590;2022-09-21T00:40:44;281.70;2278.40
55016;DHT22;40919;43.236;21.590;2022-09-21T00:43:14;281.80;2278.40
55016;DHT22;40919;43.236;21.590;2022-09-21T00:45:41;281.90;2278.40
55016;DHT22;40919;43.236;21.590;2022-09-21T00:48:07;281.80;2278.40
55016;DHT22;40919;43.236;21.590;2022-09-21T00:50:34;281.70;2278.40
55016;DHT22;40919;43.236;21.590;2022-09-21T00:53:03;282.00;2278.40
55016;DHT22;40919;43.236;21.590;2022-09-21T00:55:51;282.00;2278.40
55016;DHT22;40919;43.236;21.590;2022-09-21T00:58:23;282.00;2278.40
55016;DHT22;40919;43.236;21.590;2022-09-21T01:00:52;281.80;2278.40
55016;DHT22;40919;43.236;21.590;2022-09-21T01:03:18;281.80;2278.40
55016;DHT22;40919;43.236;21.590;2022-09-21T01:05:44;281.90;2278.40
55016;DHT22;40919;43.236;21.590;2022-09-21T01:08:12;281.90;2278.40
55016;DHT22;40919;43.236;21.590;2022-09-21T01:11:53;281.80;2278.40
55016;DHT22;40919;43.236;21.590;2022-09-21T01:14:10;281.90;2278.40
55016;DHT22;40919;43.236;21.590;2022-09-21T01:16:59;281.90;2278.40
55016;DHT22;40919;43.236;21.590;2022-09-21T01:22:15;256.70;2252.80
55016;DHT22;40919;43.236;21.590;2022-09-21T01:27:54;256.90;2252.80
55016;DHT22;40919;43.236;21.590;2022-09-21T01:30:22;256.80;2252.80
55016;DHT22;40919;43.236;21.590;2022-09-21T01:33:22;256.80;2252.80
55016;DHT22;40919;43.236;21.590;2022-09-21T01:35:55;256.80;2252.80
55016;DHT22;40919;43.236;21.590;2022-09-21T01:38:31;256.60;2252.80
55016;DHT22;40919;43.236;21.590;2022-09-21T01:41:01;256.70;2252.80
55016;DHT22;40919;43.236;21.590;2022-09-21T01:43:35;256.50;2252.80
55016;DHT22;40919;43.236;21.590;2022-09-21T01:46:03;256.30;2252.80
55016;DHT22;40919;43.236;21.590;2022-09-21T01:48:37;256.40;2252.80
55016;DHT22;40919;43.236;21.590;2022-09-21T01:51:08;256.50;2252.80
55016;DHT22;40919;43.236;21.590;2022-09-21T01:56:10;256.60;2252.80
55016;DHT22;40919;43.236;21.590;2022-09-21T01:58:48;256.60;2252.80
55016;DHT22;40919;43.236;21.590;2022-09-21T02:01:19;256.70;2252.80
55016;DHT22;40919;43.236;21.590;2022-09-21T02:04:12;256.70;2252.80
55016;DHT22;40919;43.236;21.590;2022-09-21T02:06:41;256.70;2252.80
55016;DHT22;40919;43.236;21.590;2022-09-21T02:09:08;256.70;2252.80
55016;DHT22;40919;43.236;21.590;2022-09-21T02:11:35;256.50;2252.80
55016;DHT22;40919;43.236;21.590;2022-09-21T02:14:12;256.60;2252.80
55016;DHT22;40919;43.236;21.590;2022-09-21T02:19:35;256.50;2252.80
55016;DHT22;40919;43.236;21.590;2022-09-21T02:22:06;256.40;2252.80
55016;DHT22;40919;43.236;21.590;2022-09-21T02:24:52;256.30;2252.80
55016;DHT22;40919;43.236;21.590;2022-09-21T02:30:19;256.30;2252.80
55016;DHT22;40919;43.236;21.590;2022-09-21T02:33:11;256.20;2252.80
55016;DHT22;40919;43.236;21.590;2022-09-21T02:43:26;256.30;2252.80
55016;DHT22;40919;43.236;21.590;2022-09-21T02:46:17;256.10;2252.80
55016;DHT22;40919;43.236;21.590;2022-09-21T02:48:47;256.10;2252.80
55016;DHT22;40919;43.236;21.590;2022-09-21T02:51:20;256.20;2252.80
55016;DHT22;40919;43.236;21.590;2022-09-21T02:53:48;256.30;2252.80
55016;DHT22;40919;43.236;21.590;2022-09-21T02:56:15;256.20;2252.80
55016;DHT22;40919;43.236;21.590;2022-09-21T02:58:48;256.50;2252.80
55016;DHT22;40919;43.236;21.590;2022-09-21T03:01:16;256.20;2252.80
55016;DHT22;40919;43.236;21.590;2022-09-21T03:03:43;231.30;2252.80
55016;DHT22;40919;43.236;21.590;2022-09-21T04:07:30;231.10;2252.80
55016;DHT22;40919;43.236;21.590;2022-09-21T04:09:58;231.20;2252.80
55016;DHT22;40919;43.236;21.590;2022-09-21T04:12:24;231.10;2252.80
55016;DHT22;40919;43.236;21.590;2022-09-21T04:14:49;230.80;2252.80
55016;DHT22;40919;43.236;21.590;2022-09-21T04:19:42;230.80;2252.80
55016;DHT22;40919;43.236;21.590;2022-09-21T04:27:06;231.00;2252.80
55016;DHT22;40919;43.236;21.590;2022-09-21T04:29:32;231.00;2252.80
55016;DHT22;40919;43.236;21.590;2022-09-21T04:31:58;231.00;2252.80
55016;DHT22;40919;43.236;21.590;2022-09-21T04:34:24;231.00;2252.80
55016;DHT22;40919;43.236;21.590;2022-09-21T04:36:50;231.00;2252.80
55016;DHT22;40919;43.236;21.590;2022-09-21T04:39:19;230.90;2252.80
55016;DHT22;40919;43.236;21.590;2022-09-21T04:41:45;230.90;2252.80
55016;DHT22;40919;43.236;21.590;2022-09-21T04:46:37;231.00;2252.80
55016;DHT22;40919;43.236;21.590;2022-09-21T04:49:03;231.00;2252.80
55016;DHT22;40919;43.236;21.590;2022-09-21T04:51:29;230.70;2252.80
55016;DHT22;40919;43.236;21.590;2022-09-21T04:53:56;230.90;2252.80
55016;DHT22;40919;43.236;21.590;2022-09-21T04:56:21;231.00;2252.80
55016;DHT22;40919;43.236;21.590;2022-09-21T04:58:47;231.00;2252.80
55016;DHT22;40919;43.236;21.590;2022-09-21T05:01:13;230.60;2252.80
55016;DHT22;40919;43.236;21.590;2022-09-21T05:03:39;230.90;2252.80
55016;DHT22;40919;43.236;21.590;2022-09-21T05:06:05;230.90;2252.80
55016;DHT22;40919;43.236;21.590;2022-09-21T05:08:31;231.00;2252.80
55016;DHT22;40919;43.236;21.590;2022-09-21T05:11:17;231.10;2252.80
55016;DHT22;40919;43.236;21.590;2022-09-21T05:13:44;231.10;2252.80
55016;DHT22;40919;43.236;21.590;2022-09-21T05:16:10;231.20;2252.80
55016;DHT22;40919;43.236;21.590;2022-09-21T05:18:36;231.20;2252.80
55016;DHT22;40919;43.236;21.590;2022-09-21T05:21:03;230.90;2252.80
55016;DHT22;40919;43.236;21.590;2022-09-21T05:23:31;231.10;2252.80
55016;DHT22;40919;43.236;21.590;2022-09-21T05:25:57;231.20;2252.80
55016;DHT22;40919;43.236;21.590;2022-09-21T05:28:24;256.10;2252.80
55016;DHT22;40919;43.236;21.590;2022-09-21T05:30:57;231.20;2252.80
55016;DHT22;40919;43.236;21.590;2022-09-21T05:33:27;256.10;2252.80
55016;DHT22;40919;43.236;21.590;2022-09-21T05:38:36;231.30;2252.80
55016;DHT22;40919;43.236;21.590;2022-09-21T05:41:02;231.30;2252.80
55016;DHT22;40919;43.236;21.590;2022-09-21T05:43:28;256.00;2252.80
55016;DHT22;40919;43.236;21.590;2022-09-21T05:46:19;231.30;2252.80
55016;DHT22;40919;43.236;21.590;2022-09-21T05:54:55;256.10;2252.80
55016;DHT22;40919;43.236;21.590;2022-09-21T06:05:14;256.50;2252.80
55016;DHT22;40919;43.236;21.590;2022-09-21T06:07:41;256.50;2252.80
55016;DHT22;40919;43.236;21.590;2022-09-21T06:10:12;256.60;2252.80
55016;DHT22;40919;43.236;21.590;2022-09-21T06:12:38;256.30;2252.80
55016;DHT22;40919;43.236;21.590;2022-09-21T06:15:06;256.10;2252.80
55016;DHT22;40919;43.236;21.590;2022-09-21T06:17:32;256.30;2252.80
55016;DHT22;40919;43.236;21.590;2022-09-21T06:19:58;256.40;2252.80
55016;DHT22;40919;43.236;21.590;2022-09-21T06:22:24;256.40;2252.80
55016;DHT22;40919;43.236;21.590;2022-09-21T06:24:49;256.50;2252.80
55016;DHT22;40919;43.236;21.590;2022-09-21T06:27:15;256.60;2252.80
55016;DHT22;40919;43.236;21.590;2022-09-21T06:29:41;256.60;2252.80
55016;DHT22;40919;43.236;21.590;2022-09-21T06:32:07;256.50;2252.80
55016;DHT22;40919;43.236;21.590;2022-09-21T06:34:32;256.70;2252.80
55016;DHT22;40919;43.236;21.590;2022-09-21T06:36:58;256.70;2252.80
55016;DHT22;40919;43.236;21.590;2022-09-21T06:39:24;256.60;2252.80
55016;DHT22;40919;43.236;21.590;2022-09-21T06:41:51;256.50;2252.80
55016;DHT22;40919;43.236;21.590;2022-09-21T06:44:16;256.50;2252.80
55016;DHT22;40919;43.236;21.590;2022-09-21T06:46:42;256.70;2252.80
55016;DHT22;40919;43.236;21.590;2022-09-21T06:49:08;256.40;2252.80
55016;DHT22;40919;43.236;21.590;2022-09-21T06:51:34;256.50;2252.80
55016;DHT22;40919;43.236;21.590;2022-09-21T06:54:00;256.60;2252.80
55016;DHT22;40919;43.236;21.590;2022-09-21T06:56:26;256.50;2252.80
55016;DHT22;40919;43.236;21.590;2022-09-21T06:58:53;256.50;2252.80
55016;DHT22;40919;43.236;21.590;2022-09-21T07:01:19;256.90;2252.80
55016;DHT22;40919;43.236;21.590;2022-09-21T07:03:49;281.60;2278.40
55016;DHT22;40919;43.236;21.590;2022-09-21T07:06:15;281.70;2278.40
55016;DHT22;40919;43.236;21.590;2022-09-21T07:08:42;281.80;2278.40
55016;DHT22;40919;43.236;21.590;2022-09-21T07:11:09;282.00;2278.40
55016;DHT22;40919;43.236;21.590;2022-09-21T07:13:35;281.70;2278.40
55016;DHT22;40919;43.236;21.590;2022-09-21T07:16:05;256.90;2252.80
55016;DHT22;40919;43.236;21.590;2022-09-21T07:18:32;256.90;2252.80
55016;DHT22;40919;43.236;21.590;2022-09-21T07:21:02;256.90;2252.80
55016;DHT22;40919;43.236;21.590;2022-09-21T07:23:28;281.80;2278.40
55016;DHT22;40919;43.236;21.590;2022-09-21T07:25:54;282.00;2278.40
55016;DHT22;40919;43.236;21.590;2022-09-21T07:28:20;282.10;2278.40
55016;DHT22;40919;43.236;21.590;2022-09-21T07:30:46;282.20;2278.40
55016;DHT22;40919;43.236;21.590;2022-09-21T07:33:12;282.30;2278.40
55016;DHT22;40919;43.236;21.590;2022-09-21T07:35:37;282.30;2278.40
55016;DHT22;40919;43.236;21.590;2022-09-21T07:38:05;282.40;2278.40
55016;DHT22;40919;43.236;21.590;2022-09-21T07:40:33;282.40;2278.40
55016;DHT22;40919;43.236;21.590;2022-09-21T07:43:00;282.40;2278.40
55016;DHT22;40919;43.236;21.590;2022-09-21T07:45:30;282.30;2278.40
55016;DHT22;40919;43.236;21.590;2022-09-21T07:48:04;282.30;2278.40
55016;DHT22;40919;43.236;21.590;2022-09-21T07:50:31;282.30;2278.40
55016;DHT22;40919;43.236;21.590;2022-09-21T07:52:58;282.50;2278.40
55016;DHT22;40919;43.236;21.590;2022-09-21T07:55:25;307.20;2304.00
55016;DHT22;40919;43.236;21.590;2022-09-21T07:57:51;307.30;2304.00
55016;DHT22;40919;43.236;21.590;2022-09-21T08:00:35;307.30;2304.00
55016;DHT22;40919;43.236;21.590;2022-09-21T08:03:03;307.50;2304.00
55016;DHT22;40919;43.236;21.590;2022-09-21T08:05:30;307.50;2304.00
55016;DHT22;40919;43.236;21.590;2022-09-21T08:07:56;307.40;2304.00
55016;DHT22;40919;43.236;21.590;2022-09-21T08:10:22;307.50;2304.00
55016;DHT22;40919;43.236;21.590;2022-09-21T08:12:48;307.50;2304.00
55016;DHT22;40919;43.236;21.590;2022-09-21T08:15:14;307.70;2304.00
55016;DHT22;40919;43.236;21.590;2022-09-21T08:17:42;307.70;2304.00
55016;DHT22;40919;43.236;21.590;2022-09-21T08:20:09;307.70;2304.00
55016;DHT22;40919;43.236;21.590;2022-09-21T08:22:35;307.80;2304.00
55016;DHT22;40919;43.236;21.590;2022-09-21T08:25:01;307.90;2304.00
55016;DHT22;40919;43.236;21.590;2022-09-21T08:27:27;307.90;2304.00
55016;DHT22;40919;43.236;21.590;2022-09-21T08:29:53;307.90;2304.00
55016;DHT22;40919;43.236;21.590;2022-09-21T08:32:19;308.00;2304.00
55016;DHT22;40919;43.236;21.590;2022-09-21T08:34:45;308.10;2304.00
55016;DHT22;40919;43.236;21.590;2022-09-21T08:37:11;308.10;2304.00
55016;DHT22;40919;43.236;21.590;2022-09-21T08:39:36;332.80;2329.60
55016;DHT22;40919;43.236;21.590;2022-09-21T08:42:13;308.10;2304.00
55016;DHT22;40919;43.236;21.590;2022-09-21T08:44:55;307.90;2304.00
55016;DHT22;40919;43.236;21.590;2022-09-21T08:47:39;308.00;2304.00
55016;DHT22;40919;43.236;21.590;2022-09-21T08:52:52;333.10;2329.60
55016;DHT22;40919;43.236;21.590;2022-09-21T08:55:19;333.20;2329.60
55016;DHT22;40919;43.236;21.590;2022-09-21T08:57:45;332.90;2329.60
55016;DHT22;40919;43.236;21.590;2022-09-21T09:00:16;332.90;2329.60
55016;DHT22;40919;43.236;21.590;2022-09-21T09:11:27;333.70;2329.60
55016;DHT22;40919;43.236;21.590;2022-09-21T09:23:11;359.00;2329.60
55016;DHT22;40919;43.236;21.590;2022-09-21T09:25:41;359.00;2329.60
55016;DHT22;40919;43.236;21.590;2022-09-21T09:28:27;359.20;2329.60
55016;DHT22;40919;43.236;21.590;2022-09-21T09:31:05;359.20;2329.60
55016;DHT22;40919;43.236;21.590;2022-09-21T09:33:52;384.10;2329.60
55016;DHT22;40919;43.236;21.590;2022-09-21T09:36:20;384.30;2329.60
55016;DHT22;40919;43.236;21.590;2022-09-21T09:38:59;384.30;2329.60
55016;DHT22;40919;43.236;21.590;2022-09-21T09:51:50;384.90;2329.60
55016;DHT22;40919;43.236;21.590;2022-09-21T09:54:17;384.90;2329.60
55016;DHT22;40919;43.236;21.590;2022-09-21T09:56:43;384.90;2329.60
55016;DHT22;40919;43.236;21.590;2022-09-21T10:02:07;409.60;2355.20
55016;DHT22;40919;43.236;21.590;2022-09-21T10:04:57;384.70;2329.60
55016;DHT22;40919;43.236;21.590;2022-09-21T10:07:38;384.70;2329.60
55016;DHT22;40919;43.236;21.590;2022-09-21T10:12:55;384.60;2329.60
55016;DHT22;40919;43.236;21.590;2022-09-21T10:15:25;384.60;2329.60
55016;DHT22;40919;43.236;21.590;2022-09-21T10:18:15;384.50;2329.60
55016;DHT22;40919;43.236;21.590;2022-09-21T10:21:16;384.50;2329.60
55016;DHT22;40919;43.236;21.590;2022-09-21T10:23:52;384.60;2329.60
55016;DHT22;40919;43.236;21.590;2022-09-21T10:26:21;384.60;2329.60
55016;DHT22;40919;43.236;21.590;2022-09-21T10:28:59;384.60;2329.60
55016;DHT22;40919;43.236;21.590;2022-09-21T10:31:29;384.70;2329.60
55016;DHT22;40919;43.236;21.590;2022-09-21T10:34:15;384.70;2329.60
55016;DHT22;40919;43.236;21.590;2022-09-21T10:36:49;384.60;2329.60
55016;DHT22;40919;43.236;21.590;2022-09-21T10:39:22;384.60;2329.60
55016;DHT22;40919;43.236;21.590;2022-09-21T10:44:21;384.60;2329.60
55016;DHT22;40919;43.236;21.590;2022-09-21T10:46:48;384.40;2329.60
55016;DHT22;40919;43.236;21.590;2022-09-21T10:49:22;359.00;2329.60
55016;DHT22;40919;43.236;21.590;2022-09-21T10:51:51;384.10;2329.60
55016;DHT22;40919;43.236;21.590;2022-09-21T10:54:28;359.30;2329.60
55016;DHT22;40919;43.236;21.590;2022-09-21T10:57:07;359.30;2329.60
55016;DHT22;40919;43.236;21.590;2022-09-21T10:59:35;359.20;2329.60
55016;DHT22;40919;43.236;21.590;2022-09-21T11:02:42;359.10;2329.60
55016;DHT22;40919;43.236;21.590;2022-09-21T11:05:13;359.20;2329.60
55016;DHT22;40919;43.236;21.590;2022-09-21T11:10:26;359.30;2329.60
55016;DHT22;40919;43.236;21.590;2022-09-21T11:16:00;359.30;2329.60
55016;DHT22;40919;43.236;21.590;2022-09-21T11:21:19;384.40;2329.60
55016;DHT22;40919;43.236;21.590;2022-09-21T11:24:19;384.30;2329.60
55016;DHT22;40919;43.236;21.590;2022-09-21T11:26:58;384.40;2329.60
55016;DHT22;40919;43.236;21.590;2022-09-21T11:37:26;384.50;2329.60
55016;DHT22;40919;43.236;21.590;2022-09-21T11:40:04;384.70;2329.60
55016;DHT22;40919;43.236;21.590;2022-09-21T11:43:04;384.90;2329.60
55016;DHT22;40919;43.236;21.590;2022-09-21T11:45:53;410.00;2355.20
55016;DHT22;40919;43.236;21.590;2022-09-21T11:48:46;409.90;2355.20
55016;DHT22;40919;43.236;21.590;2022-09-21T12:00:02;410.20;2355.20
55016;DHT22;40919;43.236;21.590;2022-09-21T12:21:14;435.50;2355.20
55016;DHT22;40919;43.236;21.590;2022-09-21T12:23:45;460.80;2380.80
55016;DHT22;40919;43.236;21.590;2022-09-21T12:26:18;461.30;2380.80
55016;DHT22;40919;43.236;21.590;2022-09-21T12:28:51;486.40;2380.80
55016;DHT22;40919;43.236;21.590;2022-09-21T12:31:30;486.60;2380.80
55016;DHT22;40919;43.236;21.590;2022-09-21T12:34:02;461.70;2380.80
55016;DHT22;40919;43.236;21.590;2022-09-21T12:36:49;486.60;2380.80
55016;DHT22;40919;43.236;21.590;2022-09-21T12:41:55;461.70;2380.80
55016;DHT22;40919;43.236;21.590;2022-09-21T12:44:35;461.60;2380.80
55016;DHT22;40919;43.236;21.590;2022-09-21T12:47:21;486.50;2380.80
55016;DHT22;40919;43.236;21.590;2022-09-21T12:49:50;486.80;2355.20
55016;DHT22;40919;43.236;21.590;2022-09-21T12:52:25;487.10;2329.60
55016;DHT22;40919;43.236;21.590;2022-09-21T13:01:26;461.50;2304.00
55016;DHT22;40919;43.236;21.590;2022-09-21T13:04:43;461.20;2380.80
55016;DHT22;40919;43.236;21.590;2022-09-21T13:07:18;460.90;2329.60
55016;DHT22;40919;43.236;21.590;2022-09-21T13:09:48;486.70;2304.00
55016;DHT22;40919;43.236;21.590;2022-09-21T13:12:20;487.00;2227.20
55016;DHT22;40919;43.236;21.590;2022-09-21T13:14:49;486.50;2329.60
55016;DHT22;40919;43.236;21.590;2022-09-21T13:17:22;486.90;2227.20
55016;DHT22;40919;43.236;21.590;2022-09-21T13:20:18;486.70;2176.00
55016;DHT22;40919;43.236;21.590;2022-09-21T13:22:46;461.60;2252.80
55016;DHT22;40919;43.236;21.590;2022-09-21T13:25:25;461.30;2278.40
55016;DHT22;40919;43.236;21.590;2022-09-21T13:30:45;512.20;2124.80
55016;DHT22;40919;43.236;21.590;2022-09-21T13:36:00;512.90;2124.80
55016;DHT22;40919;43.236;21.590;2022-09-21T13:41:23;487.20;2201.60
55016;DHT22;40919;43.236;21.590;2022-09-21T13:49:38;461.40;2252.80
55016;DHT22;40919;43.236;21.590;2022-09-21T13:52:06;487.10;2252.80
55016;DHT22;40919;43.236;21.590;2022-09-21T14:02:52;512.80;2073.60
55016;DHT22;40919;43.236;21.590;2022-09-21T14:08:23;486.80;2201.60
55016;DHT22;40919;43.236;21.590;2022-09-21T14:11:03;486.60;2252.80
55016;DHT22;40919;43.236;21.590;2022-09-21T14:13:43;461.30;2329.60
55016;DHT22;40919;43.236;21.590;2022-09-21T14:16:49;460.80;2380.80
55016;DHT22;40919;43.236;21.590;2022-09-21T14:24:38;461.40;2380.80
55016;DHT22;40919;43.236;21.590;2022-09-21T14:29:57;486.40;2380.80
55016;DHT22;40919;43.236;21.590;2022-09-21T14:32:29;486.50;2380.80
55016;DHT22;40919;43.236;21.590;2022-09-21T14:35:10;486.60;2380.80
55016;DHT22;40919;43.236;21.590;2022-09-21T14:37:44;486.80;2380.80
55016;DHT22;40919;43.236;21.590;2022-09-21T14:40:23;486.80;2380.80
55016;DHT22;40919;43.236;21.590;2022-09-21T14:42:56;461.30;2380.80
55016;DHT22;40919;43.236;21.590;2022-09-21T14:45:51;461.20;2380.80
55016;DHT22;40919;43.236;21.590;2022-09-21T15:00:23;435.30;2355.20
55016;DHT22;40919;43.236;21.590;2022-09-21T15:09:20;410.30;2355.20
55016;DHT22;40919;43.236;21.590;2022-09-21T15:13:13;410.20;2355.20
55016;DHT22;40919;43.236;21.590;2022-09-21T15:17:58;410.00;2355.20
55016;DHT22;40919;43.236;21.590;2022-09-21T15:20:28;409.70;2355.20
55016;DHT22;40919;43.236;21.590;2022-09-21T15:22:56;409.80;2355.20
55016;DHT22;40919;43.236;21.590;2022-09-21T15:25:25;409.70;2355.20
55016;DHT22;40919;43.236;21.590;2022-09-21T15:27:52;409.60;2355.20
55016;DHT22;40919;43.236;21.590;2022-09-21T15:30:23;409.60;2355.20
55016;DHT22;40919;43.236;21.590;2022-09-21T15:33:01;409.60;2355.20
55016;DHT22;40919;43.236;21.590;2022-09-21T15:35:31;384.90;2329.60
55016;DHT22;40919;43.236;21.590;2022-09-21T15:37:58;384.90;2329.60
55016;DHT22;40919;43.236;21.590;2022-09-21T15:40:35;384.70;2329.60
55016;DHT22;40919;43.236;21.590;2022-09-21T15:48:22;384.50;2329.60
55016;DHT22;40919;43.236;21.590;2022-09-21T15:51:09;384.50;2329.60
55016;DHT22;40919;43.236;21.590;2022-09-21T15:53:47;384.60;2329.60
55016;DHT22;40919;43.236;21.590;2022-09-21T15:56:25;384.50;2329.60
55016;DHT22;40919;43.236;21.590;2022-09-21T15:58:59;384.40;2329.60
55016;DHT22;40919;43.236;21.590;2022-09-21T16:01:38;384.40;2329.60
55016;DHT22;40919;43.236;21.590;2022-09-21T16:04:10;384.40;2329.60
55016;DHT22;40919;43.236;21.590;2022-09-21T16:06:39;384.40;2329.60
55016;DHT22;40919;43.236;21.590;2022-09-21T16:11:52;384.00;2329.60
55016;DHT22;40919;43.236;21.590;2022-09-21T16:14:18;384.00;2329.60
55016;DHT22;40919;43.236;21.590;2022-09-21T16:19:41;359.20;2329.60
55016;DHT22;40919;43.236;21.590;2022-09-21T16:22:12;359.20;2329.60
55016;DHT22;40919;43.236;21.590;2022-09-21T16:27:50;359.10;2329.60
55016;DHT22;40919;43.236;21.590;2022-09-21T16:30:43;359.10;2329.60
55016;DHT22;40919;43.236;21.590;2022-09-21T16:33:41;359.10;2329.60
55016;DHT22;40919;43.236;21.590;2022-09-21T16:36:38;359.10;2329.60
55016;DHT22;40919;43.236;21.590;2022-09-21T16:39:09;359.00;2329.60
55016;DHT22;40919;43.236;21.590;2022-09-21T16:41:44;358.90;2329.60
55016;DHT22;40919;43.236;21.590;2022-09-21T16:44:17;358.80;2329.60
55016;DHT22;40919;43.236;21.590;2022-09-21T16:49:19;358.80;2329.60
55016;DHT22;40919;43.236;21.590;2022-09-21T16:51:47;358.70;2329.60
55016;DHT22;40919;43.236;21.590;2022-09-21T16:54:15;358.70;2329.60
55016;DHT22;40919;43.236;21.590;2022-09-21T16:56:41;358.70;2329.60
55016;DHT22;40919;43.236;21.590;2022-09-21T16:59:14;358.60;2329.60
55016;DHT22;40919;43.236;21.590;2022-09-21T17:01:54;358.50;2329.60
55016;DHT22;40919;43.236;21.590;2022-09-21T17:04:23;358.40;2329.60
55016;DHT22;40919;43.236;21.590;2022-09-21T17:06:50;358.40;2329.60
55016;DHT22;40919;43.236;21.590;2022-09-21T17:09:19;358.50;2329.60
55016;DHT22;40919;43.236;21.590;2022-09-21T17:11:45;358.50;2329.60
55016;DHT22;40919;43.236;21.590;2022-09-21T17:14:13;358.50;2329.60
55016;DHT22;40919;43.236;21.590;2022-09-21T17:16:46;358.50;2329.60
55016;DHT22;40919;43.236;21.590;2022-09-21T17:19:12;333.70;2329.60
55016;DHT22;40919;43.236;21.590;2022-09-21T17:21:38;333.60;2329.60
55016;DHT22;40919;43.236;21.590;2022-09-21T17:24:04;333.70;2329.60
55016;DHT22;40919;43.236;21.590;2022-09-21T17:26:31;333.70;2329.60
55016;DHT22;40919;43.236;21.590;2022-09-21T17:28:58;333.70;2329.60
55016;DHT22;40919;43.236;21.590;2022-09-21T17:31:24;333.70;2329.60
55016;DHT22;40919;43.236;21.590;2022-09-21T17:33:50;333.70;2329.60
55016;DHT22;40919;43.236;21.590;2022-09-21T17:36:17;333.70;2329.60
55016;DHT22;40919;43.236;21.590;2022-09-21T17:38:43;333.70;2329.60
55016;DHT22;40919;43.236;21.590;2022-09-21T17:41:28;333.60;2329.60
55016;DHT22;40919;43.236;21.590;2022-09-21T17:46:57;333.70;2329.60
55016;DHT22;40919;43.236;21.590;2022-09-21T17:49:25;333.70;2329.60
55016;DHT22;40919;43.236;21.590;2022-09-21T17:51:51;333.70;2329.60
55016;DHT22;40919;43.236;21.590;2022-09-21T17:54:35;333.70;2329.60
55016;DHT22;40919;43.236;21.590;2022-09-21T17:59:35;333.70;2329.60
55016;DHT22;40919;43.236;21.590;2022-09-21T18:02:20;333.60;2329.60
55016;DHT22;40919;43.236;21.590;2022-09-21T18:04:48;333.70;2329.60
55016;DHT22;40919;43.236;21.590;2022-09-21T18:07:15;333.60;2329.60
55016;DHT22;40919;43.236;21.590;2022-09-21T18:09:42;333.60;2329.60
55016;DHT22;40919;43.236;21.590;2022-09-21T18:20:59;333.60;2329.60
55016;DHT22;40919;43.236;21.590;2022-09-21T18:23:38;333.60;2329.60
55016;DHT22;40919;43.236;21.590;2022-09-21T18:26:08;333.70;2329.60
55016;DHT22;40919;43.236;21.590;2022-09-21T18:28:46;333.60;2329.60
55016;DHT22;40919;43.236;21.590;2022-09-21T18:36:38;333.70;2329.60
55016;DHT22;40919;43.236;21.590;2022-09-21T18:42:22;333.70;2329.60
55016;DHT22;40919;43.236;21.590;2022-09-21T18:48:04;333.70;2329.60
55016;DHT22;40919;43.236;21.590;2022-09-21T18:50:55;333.60;2329.60
55016;DHT22;40919;43.236;21.590;2022-09-21T18:55:51;333.40;2329.60
55016;DHT22;40919;43.236;21.590;2022-09-21T18:58:17;333.40;2329.60
55016;DHT22;40919;43.236;21.590;2022-09-21T19:00:43;333.50;2329.60
55016;DHT22;40919;43.236;21.590;2022-09-21T19:03:14;333.40;2329.60
55016;DHT22;40919;43.236;21.590;2022-09-21T19:20:11;333.30;2329.60
55016;DHT22;40919;43.236;21.590;2022-09-21T19:22:49;333.20;2329.60
55016;DHT22;40919;43.236;21.590;2022-09-21T19:27:56;333.30;2329.60
55016;DHT22;40919;43.236;21.590;2022-09-21T19:30:24;333.30;2329.60
55016;DHT22;40919;43.236;21.590;2022-09-21T19:32:52;333.40;2329.60
55016;DHT22;40919;43.236;21.590;2022-09-21T19:35:30;333.30;2329.60
55016;DHT22;40919;43.236;21.590;2022-09-21T19:37:58;333.30;2329.60
55016;DHT22;40919;43.236;21.590;2022-09-21T19:40:31;333.20;2329.60
55016;DHT22;40919;43.236;21.590;2022-09-21T19:43:22;333.20;2329.60
55016;DHT22;40919;43.236;21.590;2022-09-21T19:48:44;333.20;2329.60
55016;DHT22;40919;43.236;21.590;2022-09-21T19:53:43;333.20;2329.60
55016;DHT22;40919;43.236;21.590;2022-09-21T19:56:29;333.20;2329.60
55016;DHT22;40919;43.236;21.590;2022-09-21T19:59:14;333.10;2329.60
55016;DHT22;40919;43.236;21.590;2022-09-21T20:02:02;333.10;2329.60
55016;DHT22;40919;43.236;21.590;2022-09-21T20:04:35;333.50;2329.60
55016;DHT22;40919;43.236;21.590;2022-09-21T20:07:40;333.10;2329.60
55016;DHT22;40919;43.236;21.590;2022-09-21T20:16:23;333.10;2329.60
55016;DHT22;40919;43.236;21.590;2022-09-21T20:18:53;333.10;2329.60
55016;DHT22;40919;43.236;21.590;2022-09-21T20:21:21;333.10;2329.60
55016;DHT22;40919;43.236;21.590;2022-09-21T20:23:55;333.10;2329.60
55016;DHT22;40919;43.236;21.590;2022-09-21T20:26:25;333.20;2329.60
55016;DHT22;40919;43.236;21.590;2022-09-21T20:28:52;333.10;2329.60
55016;DHT22;40919;43.236;21.590;2022-09-21T20:31:23;333.20;2329.60
55016;DHT22;40919;43.236;21.590;2022-09-21T20:33:49;333.20;2329.60
55016;DHT22;40919;43.236;21.590;2022-09-21T20:36:14;333.20;2329.60